createdAt,value
2018-06-10T00:00:20.994Z,30.13
2018-06-10T00:02:48.841Z,27.20
2018-06-10T00:05:16.468Z,29.97
2018-06-10T00:07:44.279Z,26.87
2018-06-10T00:10:12.108Z,28.10
2018-06-10T00:12:39.988Z,27.17
2018-06-10T00:15:07.800Z,29.80
2018-06-10T00:17:35.608Z,29.40
2018-06-10T00:20:03.528Z,32.27
2018-06-10T00:22:31.343Z,36.60
2018-06-10T00:24:59.117Z,36.30
2018-06-10T00:27:26.884Z,41.50
2018-06-10T00:29:54.566Z,39.93
2018-06-10T00:32:22.484Z,41.10
2018-06-10T00:34:50.203Z,40.33
2018-06-10T00:37:18.026Z,40.03
2018-06-10T00:39:45.873Z,42.90
2018-06-10T00:42:13.651Z,43.03
2018-06-10T00:44:41.473Z,42.23
2018-06-10T00:47:09.308Z,43.73
2018-06-10T00:49:37.118Z,49.60
2018-06-10T00:52:04.989Z,47.40
2018-06-10T00:54:32.736Z,47.80
2018-06-10T00:57:00.560Z,41.73
2018-06-10T00:59:28.358Z,44.57
2018-06-10T01:01:56.155Z,51.50
2018-06-10T01:04:23.940Z,51.87
2018-06-10T01:06:51.773Z,55.60
2018-06-10T01:09:19.585Z,52.90
2018-06-10T01:11:47.374Z,59.50
2018-06-10T01:14:15.856Z,53.27
2018-06-10T01:16:43.610Z,51.70
2018-06-10T01:19:11.579Z,45.17
2018-06-10T01:21:39.207Z,46.97
2018-06-10T01:24:07.424Z,49.20
2018-06-10T01:26:40.736Z,52.80
2018-06-10T01:29:08.599Z,54.13
2018-06-10T01:31:36.440Z,48.60
2018-06-10T01:34:04.105Z,42.37
2018-06-10T01:36:31.884Z,44.70
2018-06-10T01:38:59.780Z,43.87
2018-06-10T01:41:27.597Z,39.77
2018-06-10T01:43:55.409Z,36.63
2018-06-10T01:46:23.281Z,36.43
2018-06-10T01:48:51.096Z,38.70
2018-06-10T01:51:18.766Z,39.57
2018-06-10T01:53:46.635Z,38.67
2018-06-10T01:56:14.501Z,39.17
2018-06-10T01:58:42.171Z,38.60
2018-06-10T02:01:09.999Z,37.37
2018-06-10T02:03:37.828Z,36.33
2018-06-10T02:06:05.664Z,41.73
2018-06-10T02:08:33.485Z,34.80
2018-06-10T02:11:01.267Z,32.03
2018-06-10T02:13:29.088Z,41.10
2018-06-10T02:15:56.925Z,32.90
2018-06-10T02:18:24.767Z,33.43
2018-06-10T02:20:52.733Z,32.87
2018-06-10T02:23:20.675Z,30.87
2018-06-10T02:25:48.514Z,32.63
2018-06-10T02:28:16.336Z,30.63
2018-06-10T02:30:44.105Z,31.77
2018-06-10T02:33:11.750Z,34.30
2018-06-10T02:35:39.532Z,35.83
2018-06-10T02:38:07.292Z,35.57
2018-06-10T02:40:35.047Z,34.27
2018-06-10T02:43:03.510Z,39.07
2018-06-10T02:45:31.308Z,48.17
2018-06-10T02:47:59.085Z,36.70
2018-06-10T02:50:26.820Z,42.73
2018-06-10T02:52:54.607Z,40.13
2018-06-10T02:55:22.398Z,38.10
2018-06-10T02:57:50.069Z,44.57
2018-06-10T03:00:17.835Z,42.40
2018-06-10T03:02:45.477Z,40.50
2018-06-10T03:05:13.284Z,43.00
2018-06-10T03:07:41.053Z,42.60
2018-06-10T03:10:08.853Z,43.37
2018-06-10T03:12:36.657Z,41.73
2018-06-10T03:15:04.447Z,40.10
2018-06-10T03:17:32.209Z,45.80
2018-06-10T03:19:59.980Z,45.47
2018-06-10T03:22:27.828Z,47.43
2018-06-10T03:24:55.672Z,52.73
2018-06-10T03:27:23.327Z,48.77
2018-06-10T03:29:51.121Z,52.67
2018-06-10T03:32:18.956Z,48.60
2018-06-10T03:34:46.698Z,53.67
2018-06-10T03:37:14.483Z,54.90
2018-06-10T03:39:42.256Z,53.43
2018-06-10T03:42:10.014Z,53.97
2018-06-10T03:44:37.778Z,54.00
2018-06-10T03:47:05.524Z,53.13
2018-06-10T03:49:33.333Z,49.77
2018-06-10T03:52:01.031Z,49.80
2018-06-10T03:54:28.817Z,49.03
2018-06-10T03:56:56.624Z,46.67
2018-06-10T03:59:24.375Z,55.90
2018-06-10T04:01:52.156Z,47.93
2018-06-10T04:04:19.771Z,48.00
2018-06-10T04:06:47.608Z,47.93
2018-06-10T04:09:15.356Z,44.77
2018-06-10T04:11:43.117Z,51.60
2018-06-10T04:14:10.935Z,48.40
2018-06-10T04:16:38.722Z,42.73
2018-06-10T04:19:06.390Z,48.17
2018-06-10T04:21:33.997Z,48.20
2018-06-10T04:24:01.830Z,53.07
2018-06-10T04:26:29.522Z,53.77
2018-06-10T04:28:57.352Z,46.50
2018-06-10T04:31:25.084Z,45.40
2018-06-10T04:33:52.876Z,42.80
2018-06-10T04:36:20.483Z,51.17
2018-06-10T04:38:48.287Z,46.70
2018-06-10T04:41:16.064Z,51.20
2018-06-10T04:43:43.829Z,47.53
2018-06-10T04:46:11.437Z,47.27
2018-06-10T04:48:39.212Z,38.90
2018-06-10T04:51:06.999Z,28.17
2018-06-10T04:53:34.751Z,28.00
2018-06-10T04:56:02.630Z,24.50
2018-06-10T04:58:30.393Z,32.10
2018-06-10T05:00:58.188Z,29.57
2018-06-10T05:03:25.827Z,25.93
2018-06-10T05:05:53.607Z,26.83
2018-06-10T05:08:21.340Z,24.63
2018-06-10T05:10:49.100Z,21.67
2018-06-10T05:13:16.881Z,22.30
2018-06-10T05:15:44.660Z,24.13
2018-06-10T05:18:12.311Z,23.57
2018-06-10T05:20:40.072Z,21.83
2018-06-10T05:23:07.860Z,25.93
2018-06-10T05:25:35.520Z,25.07
2018-06-10T05:28:03.389Z,24.67
2018-06-10T05:30:31.064Z,22.23
2018-06-10T05:32:58.861Z,24.60
2018-06-10T05:35:26.641Z,23.30
2018-06-10T05:37:54.467Z,24.67
2018-06-10T05:40:22.257Z,22.57
2018-06-10T05:42:50.057Z,28.50
2018-06-10T05:45:17.824Z,25.37
2018-06-10T05:47:45.471Z,27.23
2018-06-10T05:50:13.265Z,25.70
2018-06-10T05:52:40.912Z,29.83
2018-06-10T05:55:08.727Z,29.97
2018-06-10T05:57:36.477Z,32.57
2018-06-10T06:00:04.688Z,28.07
2018-06-10T06:02:32.519Z,33.47
2018-06-10T06:05:00.273Z,35.80
2018-06-10T06:07:27.940Z,36.70
2018-06-10T06:09:55.731Z,36.27
2018-06-10T06:12:23.558Z,39.43
2018-06-10T06:14:51.204Z,39.20
2018-06-10T06:17:19.137Z,37.37
2018-06-10T06:19:46.995Z,30.67
2018-06-10T06:22:14.790Z,27.83
2018-06-10T06:24:42.596Z,27.87
2018-06-10T06:27:10.380Z,34.37
2018-06-10T06:29:38.211Z,31.47
2018-06-10T06:32:06.535Z,27.80
2018-06-10T06:34:34.521Z,31.73
2018-06-10T06:37:02.448Z,31.23
2018-06-10T06:39:30.484Z,33.27
2018-06-10T06:41:58.471Z,29.80
2018-06-10T06:44:27.111Z,29.97
2018-06-10T06:46:56.017Z,36.87
2018-06-10T06:49:23.812Z,34.20
2018-06-10T06:51:53.116Z,32.53
2018-06-10T06:54:43.926Z,32.83
2018-06-10T06:57:14.071Z,32.53
2018-06-10T06:59:41.963Z,37.67
2018-06-10T07:02:09.900Z,32.63
2018-06-10T07:04:37.700Z,35.10
2018-06-10T07:07:05.909Z,32.50
2018-06-10T07:09:33.552Z,29.23
2018-06-10T07:12:01.473Z,27.10
2018-06-10T07:14:29.291Z,28.13
2018-06-10T07:16:57.214Z,30.13
2018-06-10T07:19:25.068Z,29.43
2018-06-10T07:21:52.857Z,31.70
2018-06-10T07:24:20.995Z,30.47
2018-06-10T07:26:48.810Z,32.47
2018-06-10T07:29:17.247Z,30.47
2018-06-10T07:31:45.022Z,28.87
2018-06-10T07:34:12.834Z,31.97
2018-06-10T07:36:40.855Z,35.37
2018-06-10T07:39:08.820Z,38.77
2018-06-10T07:41:36.540Z,30.67
2018-06-10T07:44:05.788Z,30.67
2018-06-10T07:46:33.681Z,32.93
2018-06-10T07:49:01.929Z,35.73
2018-06-10T07:51:29.787Z,32.97
2018-06-10T07:53:58.617Z,37.30
2018-06-10T07:56:26.738Z,35.97
2018-06-10T07:58:54.528Z,37.00
2018-06-10T08:01:22.531Z,46.30
2018-06-10T08:03:50.488Z,40.83
2018-06-10T08:06:18.702Z,38.87
2018-06-10T08:08:46.764Z,50.53
2018-06-10T08:11:14.580Z,49.57
2018-06-10T08:13:42.616Z,48.13
2018-06-10T08:16:10.848Z,48.67
2018-06-10T08:18:38.631Z,45.30
2018-06-10T08:21:06.684Z,40.23
2018-06-10T08:23:34.517Z,43.80
2018-06-10T08:26:02.584Z,46.90
2018-06-10T08:28:30.700Z,47.57
2018-06-10T08:30:59.060Z,43.07
2018-06-10T08:33:27.404Z,46.87
2018-06-10T08:35:55.556Z,45.23
2018-06-10T08:38:23.769Z,45.40
2018-06-10T08:40:51.593Z,52.23
2018-06-10T08:43:19.457Z,55.17
2018-06-10T08:45:47.362Z,61.23
2018-06-10T08:48:15.766Z,56.47
2018-06-10T08:50:43.808Z,54.40
2018-06-10T08:53:11.774Z,50.77
2018-06-10T08:55:39.625Z,54.17
2018-06-10T08:58:07.373Z,51.50
2018-06-10T09:00:35.112Z,57.43
2018-06-10T09:03:02.880Z,56.53
2018-06-10T09:05:30.671Z,57.67
2018-06-10T09:07:58.446Z,53.20
2018-06-10T09:10:26.231Z,53.80
2018-06-10T09:12:53.999Z,53.90
2018-06-10T09:15:21.797Z,56.30
2018-06-10T09:17:49.635Z,48.27
2018-06-10T09:20:17.451Z,42.00
2018-06-10T09:22:45.284Z,46.90
2018-06-10T09:25:12.895Z,44.13
2018-06-10T09:27:40.693Z,49.63
2018-06-10T09:30:08.552Z,49.10
2018-06-10T09:32:36.291Z,44.83
2018-06-10T09:35:04.523Z,43.30
2018-06-10T09:37:32.280Z,47.10
2018-06-10T09:40:00.084Z,48.57
2018-06-10T09:42:27.831Z,49.63
2018-06-10T09:44:55.576Z,56.43
2018-06-10T09:47:23.327Z,58.30
2018-06-10T09:49:51.164Z,62.70
2018-06-10T09:52:18.988Z,64.83
2018-06-10T09:54:46.824Z,55.17
2018-06-10T09:57:14.707Z,70.33
2018-06-10T09:59:42.531Z,61.57
2018-06-10T10:02:10.300Z,57.37
2018-06-10T10:04:38.079Z,55.07
2018-06-10T10:07:05.780Z,72.30
2018-06-10T10:09:33.584Z,59.33
2018-06-10T10:12:01.389Z,61.20
2018-06-10T10:14:29.230Z,58.13
2018-06-10T10:16:56.960Z,58.47
2018-06-10T10:19:24.704Z,52.23
2018-06-10T10:21:52.546Z,44.07
2018-06-10T10:24:20.306Z,53.63
2018-06-10T10:26:48.080Z,44.53
2018-06-10T10:29:15.946Z,47.37
2018-06-10T10:31:43.716Z,43.33
2018-06-10T10:34:11.387Z,50.20
2018-06-10T10:36:39.203Z,48.07
2018-06-10T10:39:07.567Z,47.20
2018-06-10T10:41:35.448Z,46.63
2018-06-10T10:44:03.309Z,45.00
2018-06-10T10:46:31.149Z,53.13
2018-06-10T10:48:58.943Z,48.07
2018-06-10T10:51:26.626Z,47.87
2018-06-10T10:53:54.420Z,48.70
2018-06-10T10:56:22.240Z,45.87
2018-06-10T10:58:50.091Z,41.93
2018-06-10T11:01:17.876Z,48.07
2018-06-10T11:03:45.698Z,48.93
2018-06-10T11:06:13.472Z,48.97
2018-06-10T11:08:41.493Z,50.20
2018-06-10T11:11:09.361Z,57.07
2018-06-10T11:13:37.188Z,52.73
2018-06-10T11:16:05.146Z,54.67
2018-06-10T11:18:32.948Z,47.30
2018-06-10T11:21:00.790Z,58.60
2018-06-10T11:23:28.592Z,52.30
2018-06-10T11:25:56.296Z,56.43
2018-06-10T11:28:24.156Z,54.87
2018-06-10T11:30:52.027Z,55.50
2018-06-10T11:33:19.789Z,54.30
2018-06-10T11:35:47.638Z,50.00
2018-06-10T11:38:15.287Z,55.03
2018-06-10T11:40:43.227Z,51.20
2018-06-10T11:43:11.055Z,52.23
2018-06-10T11:45:38.969Z,51.90
2018-06-10T11:48:08.813Z,55.67
2018-06-10T11:50:36.632Z,57.17
2018-06-10T11:53:04.451Z,54.53
2018-06-10T11:55:32.336Z,55.60
2018-06-10T11:58:00.275Z,59.93
2018-06-10T12:00:27.964Z,56.43
2018-06-10T12:02:55.801Z,53.20
2018-06-10T12:05:23.596Z,53.17
2018-06-10T12:07:51.468Z,51.03
2018-06-10T12:10:19.248Z,48.17
2018-06-10T12:12:47.075Z,53.30
2018-06-10T12:15:14.868Z,51.67
2018-06-10T12:17:42.707Z,58.80
2018-06-10T12:20:10.324Z,49.33
2018-06-10T12:22:38.173Z,53.33
2018-06-10T12:25:05.908Z,57.07
2018-06-10T12:27:33.664Z,54.87
2018-06-10T12:30:01.588Z,66.20
2018-06-10T12:32:29.430Z,62.37
2018-06-10T12:34:57.245Z,64.07
2018-06-10T12:37:25.045Z,63.53
2018-06-10T12:39:52.867Z,60.87
2018-06-10T12:42:20.733Z,53.50
2018-06-10T12:44:48.627Z,59.83
2018-06-10T12:47:16.401Z,57.30
2018-06-10T12:49:44.283Z,66.20
2018-06-10T12:52:12.114Z,60.53
2018-06-10T12:54:39.973Z,53.80
2018-06-10T12:57:07.673Z,56.03
2018-06-10T12:59:35.443Z,47.03
2018-06-10T13:02:03.364Z,53.10
2018-06-10T13:04:31.207Z,48.87
2018-06-10T13:06:59.036Z,50.03
2018-06-10T13:09:26.868Z,49.93
2018-06-10T13:11:54.569Z,57.77
2018-06-10T13:14:22.363Z,55.90
2018-06-10T13:16:50.124Z,51.20
2018-06-10T13:19:17.879Z,49.77
2018-06-10T13:21:45.670Z,49.47
2018-06-10T13:24:13.536Z,51.07
2018-06-10T13:26:41.444Z,48.30
2018-06-10T13:29:09.135Z,45.47
2018-06-10T13:31:36.972Z,45.87
2018-06-10T13:34:04.616Z,46.90
2018-06-10T13:36:32.485Z,36.20
2018-06-10T13:39:00.362Z,34.10
2018-06-10T13:41:28.165Z,30.87
2018-06-10T13:43:56.059Z,28.87
2018-06-10T13:46:23.858Z,33.90
2018-06-10T13:48:51.622Z,29.47
2018-06-10T13:51:19.368Z,32.03
2018-06-10T13:53:47.164Z,29.70
2018-06-10T13:56:14.962Z,24.60
2018-06-10T13:58:42.779Z,25.80
2018-06-10T14:01:10.641Z,28.83
2018-06-10T14:03:38.492Z,25.20
2018-06-10T14:06:06.359Z,24.83
2018-06-10T14:08:34.176Z,21.70
2018-06-10T14:11:01.986Z,24.10
2018-06-10T14:13:29.798Z,22.47
2018-06-10T14:15:57.649Z,22.27
2018-06-10T14:18:25.465Z,22.77
2018-06-10T14:20:53.291Z,21.13
2018-06-10T14:23:21.155Z,20.10
2018-06-10T14:25:48.912Z,21.43
2018-06-10T14:28:16.733Z,22.20
2018-06-10T14:30:44.585Z,20.60
2018-06-10T14:33:12.364Z,18.37
2018-06-10T14:35:40.178Z,16.83
2018-06-10T14:38:07.946Z,18.97
2018-06-10T14:40:35.769Z,19.40
2018-06-10T14:43:03.632Z,15.40
2018-06-10T14:45:31.468Z,22.90
2018-06-10T14:47:59.293Z,19.37
2018-06-10T14:50:28.100Z,18.10
2018-06-10T14:52:55.890Z,20.43
2018-06-10T14:55:23.730Z,23.93
2018-06-10T14:57:51.516Z,20.30
2018-06-10T15:00:19.377Z,20.57
2018-06-10T15:02:47.190Z,25.90
2018-06-10T15:05:14.941Z,23.77
2018-06-10T15:07:42.737Z,19.80
2018-06-10T15:10:10.478Z,17.53
2018-06-10T15:12:38.290Z,18.20
2018-06-10T15:15:06.037Z,15.23
2018-06-10T15:17:33.830Z,15.57
2018-06-10T15:20:01.649Z,19.07
2018-06-10T15:22:29.471Z,18.17
2018-06-10T15:24:57.259Z,16.57
2018-06-10T15:27:25.049Z,16.00
2018-06-10T15:29:52.897Z,16.60
2018-06-10T15:32:20.647Z,18.23
2018-06-10T15:34:48.474Z,19.00
2018-06-10T15:37:16.176Z,18.30
2018-06-10T15:39:43.965Z,17.23
2018-06-10T15:42:11.759Z,16.00
2018-06-10T15:44:39.588Z,18.07
2018-06-10T15:47:07.424Z,18.00
2018-06-10T15:49:35.229Z,18.10
2018-06-10T15:52:03.081Z,15.60
2018-06-10T15:54:30.890Z,16.00
2018-06-10T15:56:58.696Z,18.43
2018-06-10T15:59:26.484Z,19.20
2018-06-10T16:01:54.332Z,16.33
2018-06-10T16:04:22.160Z,20.00
2018-06-10T16:06:49.950Z,18.37
2018-06-10T16:09:17.768Z,15.10
2018-06-10T16:11:45.592Z,17.60
2018-06-10T16:14:13.373Z,17.40
2018-06-10T16:16:41.236Z,16.20
2018-06-10T16:19:09.260Z,18.57
2018-06-10T16:21:36.914Z,20.80
2018-06-10T16:24:04.719Z,21.07
2018-06-10T16:26:32.484Z,21.25
2018-06-10T16:29:00.235Z,20.67
2018-06-10T16:31:28.048Z,20.60
2018-06-10T16:33:55.876Z,17.57
2018-06-10T16:36:23.656Z,18.37
2018-06-10T16:38:51.526Z,16.67
2018-06-10T16:41:19.356Z,17.83
2018-06-10T16:43:47.181Z,19.57
2018-06-10T16:46:14.989Z,21.50
2018-06-10T16:48:42.776Z,19.23
2018-06-10T16:51:10.653Z,18.90
2018-06-10T16:53:38.458Z,17.07
2018-06-10T16:56:06.266Z,17.10
2018-06-10T16:58:34.081Z,17.43
2018-06-10T17:01:01.909Z,16.27
2018-06-10T17:03:29.788Z,20.03
2018-06-10T17:05:57.638Z,20.33
2018-06-10T17:08:25.409Z,18.60
2018-06-10T17:10:53.244Z,18.80
2018-06-10T17:13:20.916Z,20.60
2018-06-10T17:15:48.719Z,20.87
2018-06-10T17:18:16.540Z,18.17
2018-06-10T17:20:44.196Z,18.47
2018-06-10T17:23:11.977Z,17.47
2018-06-10T17:25:40.049Z,17.07
2018-06-10T17:28:07.846Z,17.70
2018-06-10T17:30:35.700Z,18.73
2018-06-10T17:33:03.504Z,18.37
2018-06-10T17:35:31.291Z,18.70
2018-06-10T17:37:59.077Z,17.77
2018-06-10T17:40:26.835Z,18.70
2018-06-10T17:42:54.471Z,17.30
2018-06-10T17:45:22.249Z,19.00
2018-06-10T17:47:50.109Z,21.80
2018-06-10T17:50:17.819Z,18.23
2018-06-10T17:52:45.605Z,17.00
2018-06-10T17:55:13.509Z,63.57
2018-06-10T17:57:41.354Z,22.33
2018-06-10T18:00:09.203Z,20.60
2018-06-10T18:02:37.002Z,21.03
2018-06-10T18:05:04.827Z,18.97
2018-06-10T18:07:32.540Z,21.83
2018-06-10T18:10:00.341Z,19.77
2018-06-10T18:12:28.165Z,22.37
2018-06-10T18:14:55.871Z,20.70
2018-06-10T18:17:23.705Z,20.50
2018-06-10T18:19:51.400Z,20.67
2018-06-10T18:22:19.310Z,20.10
2018-06-10T18:24:47.146Z,20.10
2018-06-10T18:27:14.952Z,23.00
2018-06-10T18:29:42.768Z,26.10
2018-06-10T18:32:10.569Z,36.10
2018-06-10T18:34:38.348Z,30.53
2018-06-10T18:37:06.197Z,24.03
2018-06-10T18:39:34.025Z,19.77
2018-06-10T18:42:01.903Z,19.57
2018-06-10T18:44:29.749Z,21.00
2018-06-10T18:46:57.562Z,20.17
2018-06-10T18:49:25.411Z,21.57
2018-06-10T18:51:53.248Z,19.73
2018-06-10T18:54:21.052Z,22.33
2018-06-10T18:56:48.929Z,19.70
2018-06-10T18:59:16.800Z,23.23
2018-06-10T19:01:44.651Z,19.23
2018-06-10T19:04:12.429Z,28.30
2018-06-10T19:06:40.312Z,24.00
2018-06-10T19:09:08.671Z,21.43
2018-06-10T19:11:36.385Z,20.10
2018-06-10T19:14:04.140Z,20.50
2018-06-10T19:16:32.003Z,19.70
2018-06-10T19:18:59.860Z,18.27
2018-06-10T19:21:27.525Z,17.57
2018-06-10T19:23:55.185Z,20.30
2018-06-10T19:26:22.998Z,17.33
2018-06-10T19:28:50.915Z,18.77
2018-06-10T19:31:18.729Z,17.67
2018-06-10T19:33:46.701Z,17.90
2018-06-10T19:36:14.521Z,17.90
2018-06-10T19:38:42.493Z,17.47
2018-06-10T19:41:10.304Z,17.90
2018-06-10T19:43:38.124Z,16.57
2018-06-10T19:46:05.975Z,16.07
2018-06-10T19:48:33.655Z,17.47
2018-06-10T19:51:01.523Z,17.80
2018-06-10T19:53:29.354Z,15.80
2018-06-10T19:55:57.150Z,17.87
2018-06-10T19:58:24.899Z,18.70
2018-06-10T20:00:52.684Z,18.10
2018-06-10T20:03:20.488Z,16.70
2018-06-10T20:05:48.233Z,17.63
2018-06-10T20:08:15.843Z,18.03
2018-06-10T20:10:44.404Z,16.30
2018-06-10T20:13:13.329Z,18.40
2018-06-10T20:15:41.360Z,18.20
2018-06-10T20:18:09.085Z,15.40
2018-06-10T20:20:36.869Z,19.50
2018-06-10T20:23:06.052Z,16.70
2018-06-10T20:25:35.265Z,17.57
2018-06-10T20:28:06.578Z,18.77
2018-06-10T20:30:37.639Z,17.33
2018-06-10T20:33:08.760Z,16.70
2018-06-10T20:35:52.626Z,17.10
2018-06-10T20:38:24.170Z,16.97
2018-06-10T20:40:56.507Z,18.07
2018-06-10T20:43:26.382Z,18.30
2018-06-10T20:45:55.102Z,19.00
2018-06-10T20:48:26.735Z,19.40
2018-06-10T20:50:56.528Z,16.53
2018-06-10T20:53:24.417Z,17.20
2018-06-10T20:55:52.589Z,16.93
2018-06-10T20:58:21.290Z,16.87
2018-06-10T21:00:50.091Z,19.13
2018-06-10T21:03:18.491Z,18.03
2018-06-10T21:05:47.324Z,18.40
2018-06-10T21:08:16.171Z,21.63
2018-06-10T21:10:44.042Z,18.97
2018-06-10T21:13:11.824Z,18.93
2018-06-10T21:15:40.046Z,18.70
2018-06-10T21:18:07.916Z,19.20
2018-06-10T21:20:35.879Z,18.97
2018-06-10T21:23:06.868Z,21.00
2018-06-10T21:25:36.426Z,18.20
2018-06-10T21:28:05.474Z,19.60
2018-06-10T21:30:34.160Z,18.80
2018-06-10T21:33:02.774Z,18.90
2018-06-10T21:35:33.017Z,19.30
2018-06-10T21:38:01.268Z,19.33
2018-06-10T21:40:29.780Z,18.10
2018-06-10T21:42:58.223Z,19.13
2018-06-10T21:45:27.368Z,17.97
2018-06-10T21:47:55.895Z,17.80
2018-06-10T21:50:25.901Z,22.53
2018-06-10T21:52:54.736Z,20.10
2018-06-10T21:55:25.226Z,19.13
2018-06-10T21:57:53.366Z,19.70
2018-06-10T22:00:29.602Z,18.50
2018-06-10T22:02:57.661Z,20.40
2018-06-10T22:05:25.564Z,20.00
2018-06-10T22:07:53.690Z,19.13
2018-06-10T22:10:22.042Z,22.17
2018-06-10T22:12:51.309Z,18.90
2018-06-10T22:15:19.480Z,18.77
2018-06-10T22:17:48.033Z,19.27
2018-06-10T22:20:16.400Z,24.07
2018-06-10T22:22:44.450Z,21.20
2018-06-10T22:25:12.887Z,19.83
2018-06-10T22:27:40.875Z,22.67
2018-06-10T22:30:09.008Z,21.90
2018-06-10T22:32:36.815Z,18.90
2018-06-10T22:35:04.664Z,18.20
2018-06-10T22:37:32.572Z,20.73
2018-06-10T22:40:00.412Z,20.13
2018-06-10T22:42:29.427Z,20.80
2018-06-10T22:44:57.468Z,18.90
2018-06-10T22:47:25.229Z,19.93
2018-06-10T22:49:53.122Z,19.13
2018-06-10T22:52:21.225Z,20.60
2018-06-10T22:54:49.079Z,22.00
2018-06-10T22:57:17.842Z,21.77
2018-06-10T22:59:45.637Z,21.23
2018-06-10T23:02:13.305Z,21.67
2018-06-10T23:04:41.079Z,19.37
2018-06-10T23:07:08.895Z,21.67
2018-06-10T23:09:36.661Z,19.43
2018-06-10T23:12:04.501Z,21.30
2018-06-10T23:14:32.327Z,17.53
2018-06-10T23:17:00.100Z,20.53
2018-06-10T23:19:28.881Z,21.37
2018-06-10T23:21:56.729Z,18.73
2018-06-10T23:24:24.543Z,21.17
2018-06-10T23:26:52.315Z,20.70
2018-06-10T23:29:20.096Z,19.90
2018-06-10T23:31:47.907Z,21.07
2018-06-10T23:34:15.721Z,24.50
2018-06-10T23:36:43.554Z,21.40
2018-06-10T23:39:11.397Z,20.17
2018-06-10T23:41:39.192Z,22.13
2018-06-10T23:44:07.038Z,20.27
2018-06-10T23:46:34.786Z,22.87
2018-06-10T23:49:02.559Z,26.00
2018-06-10T23:51:30.301Z,20.47
2018-06-10T23:53:58.080Z,22.80
2018-06-10T23:56:25.853Z,23.13
2018-06-10T23:58:53.584Z,22.83
